Time;durP1;ratioP1;P1;durP2;ratioP2;P2;SDS_P1;SDS_P2;PMS_P1;PMS_P2;Temp;Humidity;BMP_temperature;BMP_pressure;BME280_temperature;BME280_humidity;BME280_pressure;Samples;Min_cycle;Max_cycle;Signal;HPM_P1;HPM_P2
2023/10/12 00:00:33;;;;;;;0.70;0.70;;;14.40;99.90;13.80;99220;;;;594150;237;25046;-81
2023/10/12 00:02:58;;;;;;;0.70;0.70;;;14.40;99.90;13.70;99219;;;;593858;239;24081;-81
2023/10/12 00:05:29;;;;;;;0.53;0.53;;;14.30;99.90;13.70;99208;;;;577579;244;24095;-81
2023/10/12 00:07:55;;;;;;;0.50;0.50;;;14.10;99.90;13.50;99219;;;;569714;248;24128;-81
2023/10/12 00:10:23;;;;;;;0.50;0.50;;;14.10;99.90;13.40;99218;;;;569910;248;24080;-81
2023/10/12 00:12:53;;;;;;;0.65;0.65;;;14.00;99.90;13.40;99211;;;;573556;246;56749;-80
2023/10/12 00:17:50;;;;;;;1.47;0.50;;;13.90;99.90;13.30;99204;;;;586489;242;24134;-80
2023/10/12 00:23:02;;;;;;;0.47;0.40;;;13.90;99.90;13.30;99215;;;;574356;242;24089;-80
2023/10/12 00:25:33;;;;;;;0.97;0.53;;;13.90;99.90;13.30;99209;;;;580251;245;24072;-80
2023/10/12 00:27:57;;;;;;;0.70;0.53;;;13.80;99.90;13.30;99203;;;;564114;248;24096;-81
2023/10/12 00:30:24;;;;;;;0.43;0.43;;;13.80;99.90;13.30;99187;;;;579377;247;24089;-80
2023/10/12 00:32:52;;;;;;;0.40;0.40;;;13.90;99.90;13.30;99193;;;;581210;246;24118;-81
2023/10/12 00:35:20;;;;;;;0.70;0.70;;;13.80;99.90;13.30;99212;;;;567533;249;24091;-81
2023/10/12 00:37:48;;;;;;;0.77;0.43;;;13.90;99.90;13.30;99207;;;;581202;245;24057;-81
2023/10/12 00:40:32;;;;;;;0.40;0.40;;;13.90;99.90;13.30;99197;;;;580910;245;24074;-80
2023/10/12 00:42:59;;;;;;;0.80;0.80;;;13.90;99.90;13.30;99198;;;;576101;246;24061;-80
2023/10/12 00:45:34;;;;;;;0.50;0.50;;;13.90;99.90;13.30;99202;;;;580492;247;24123;-81
2023/10/12 00:48:16;;;;;;;0.70;0.70;;;13.90;99.90;13.40;99200;;;;580721;247;24076;-80
2023/10/12 00:50:37;;;;;;;0.67;0.67;;;13.90;99.90;13.40;99196;;;;575708;247;24159;-79
2023/10/12 00:53:15;;;;;;;0.97;0.83;;;13.90;99.90;13.40;99188;;;;580775;247;24125;-80
2023/10/12 00:55:36;;;;;;;1.40;1.17;;;13.90;99.90;13.40;99195;;;;572801;247;24095;-80
2023/10/12 00:58:10;;;;;;;0.80;0.80;;;14.00;99.90;13.40;99198;;;;604102;237;24023;-80
2023/10/12 01:00:50;;;;;;;1.20;1.10;;;14.00;99.90;13.40;99208;;;;586387;242;24046;-80
2023/10/12 01:03:35;;;;;;;1.50;1.40;;;14.00;99.90;13.50;99207;;;;572059;245;24061;-81
2023/10/12 01:06:12;;;;;;;2.70;1.17;;;14.00;99.90;13.50;99209;;;;580736;245;24076;-80
2023/10/12 01:08:34;;;;;;;1.80;1.37;;;14.00;99.90;13.50;99204;;;;573405;244;24044;-81
2023/10/12 01:11:07;;;;;;;3.03;1.43;;;14.10;99.90;13.60;99202;;;;578666;247;24076;-80
2023/10/12 01:13:35;;;;;;;1.93;1.40;;;14.10;99.90;13.60;99195;;;;580344;247;24096;-80
2023/10/12 01:18:38;;;;;;;2.30;1.70;;;14.10;99.90;13.60;99213;;;;578751;246;24114;-79
2023/10/12 01:21:11;;;;;;;2.07;1.87;;;14.10;99.90;13.60;99209;;;;575171;249;24055;-79
2023/10/12 01:23:35;;;;;;;1.67;1.57;;;14.20;99.90;13.60;99210;;;;578775;246;24080;-79
2023/10/12 01:26:10;;;;;;;2.87;1.80;;;14.20;99.90;13.60;99197;;;;575225;247;24093;-80
2023/10/12 01:28:32;;;;;;;2.00;1.90;;;14.20;99.90;13.60;99200;;;;580395;247;24195;-80
2023/10/12 01:31:00;;;;;;;2.47;1.90;;;14.20;99.90;13.60;99207;;;;589608;239;24097;-82
2023/10/12 01:33:27;;;;;;;1.57;1.47;;;14.20;99.90;13.60;99216;;;;593920;237;24032;-81
2023/10/12 01:35:56;;;;;;;1.63;1.53;;;14.20;99.90;13.60;99223;;;;591186;238;25274;-81
2023/10/12 01:38:23;;;;;;;3.20;2.03;;;14.20;99.90;13.60;99211;;;;577824;244;24125;-80
2023/10/12 01:40:55;;;;;;;2.47;1.93;;;14.20;99.90;13.60;99209;;;;567755;249;24092;-79
2023/10/12 01:43:27;;;;;;;1.60;1.50;;;14.20;99.90;13.60;99210;;;;572515;244;24117;-80
2023/10/12 01:46:06;;;;;;;2.00;1.30;;;14.10;99.90;13.50;99210;;;;603854;237;24066;-82
2023/10/12 01:48:33;;;;;;;1.50;1.50;;;14.10;99.90;13.50;99212;;;;594960;237;24037;-81
2023/10/12 01:50:56;;;;;;;1.10;1.10;;;14.10;99.90;13.50;99218;;;;599854;238;24060;-81
2023/10/12 01:53:26;;;;;;;1.40;1.30;;;14.10;99.90;13.50;99217;;;;594355;238;24043;-80
2023/10/12 01:55:54;;;;;;;1.97;1.87;;;14.10;99.90;13.50;99227;;;;578084;243;24050;-80
2023/10/12 01:58:23;;;;;;;1.77;1.57;;;14.00;99.90;13.50;99214;;;;576082;248;24091;-80
2023/10/12 02:00:52;;;;;;;3.63;1.87;;;14.00;99.90;13.50;99208;;;;570562;248;24082;-80
2023/10/12 02:03:31;;;;;;;1.80;1.70;;;14.00;99.90;13.50;99187;;;;580790;245;24075;-80
2023/10/12 02:05:58;;;;;;;1.50;1.40;;;14.00;99.90;13.40;99168;;;;573866;244;24066;-79
2023/10/12 02:08:40;;;;;;;3.37;1.50;;;14.00;99.90;13.40;99167;;;;568530;248;24072;-81
2023/10/12 02:11:12;;;;;;;1.83;1.57;;;14.00;99.90;13.40;99169;;;;576416;246;24060;-80
2023/10/12 02:13:43;;;;;;;2.33;1.60;;;13.90;99.90;13.40;99169;;;;576144;248;24072;-80
2023/10/12 02:16:12;;;;;;;2.40;1.87;;;13.90;99.90;13.40;99158;;;;566905;249;24080;-78
2023/10/12 02:18:36;;;;;;;1.70;1.60;;;13.90;99.90;13.40;99156;;;;575483;248;24096;-80
2023/10/12 02:23:54;;;;;;;1.60;1.50;;;13.90;99.90;13.40;99153;;;;599989;239;24040;-80
2023/10/12 02:26:54;;;;;;;1.73;1.20;;;13.90;99.90;13.40;99148;;;;594438;239;24103;-79
2023/10/12 02:28:39;;;;;;;1.23;1.17;;;13.90;99.90;13.30;99150;;;;574353;247;24084;-80
2023/10/12 02:31:04;;;;;;;1.77;1.53;;;13.90;99.90;13.30;99158;;;;578721;246;24289;-79
2023/10/12 02:33:36;;;;;;;1.10;1.00;;;13.90;99.90;13.30;99136;;;;571647;247;24079;-79
2023/10/12 02:36:06;;;;;;;2.03;1.13;;;13.80;99.90;13.30;99120;;;;580503;247;24063;-80
2023/10/12 02:38:28;;;;;;;0.90;0.90;;;13.80;99.90;13.30;99122;;;;603466;237;24007;-79
2023/10/12 02:40:57;;;;;;;0.60;0.60;;;13.80;99.90;13.20;99136;;;;594488;239;24011;-79
2023/10/12 02:43:27;;;;;;;1.80;0.83;;;13.80;99.90;13.20;99158;;;;594350;237;24010;-79
2023/10/12 02:45:53;;;;;;;1.20;0.97;;;13.70;99.90;13.20;99181;;;;578655;243;24040;-80
2023/10/12 02:48:23;;;;;;;1.10;1.10;;;13.70;99.90;13.20;99187;;;;571731;247;24069;-79
2023/10/12 02:51:06;;;;;;;2.27;0.83;;;13.70;99.90;13.10;99162;;;;581996;246;24097;-79
2023/10/12 02:53:30;;;;;;;4.13;0.60;;;13.70;99.90;13.10;99158;;;;577040;245;24123;-79
2023/10/12 02:56:07;;;;;;;0.60;0.60;;;13.70;99.90;13.10;99149;;;;581376;247;24120;-81
2023/10/12 02:58:35;;;;;;;0.80;0.80;;;13.60;99.90;13.10;99169;;;;592172;238;24042;-80
2023/10/12 03:01:19;;;;;;;0.63;0.63;;;13.60;99.90;13.10;99164;;;;594758;235;24077;-81
2023/10/12 03:03:49;;;;;;;0.63;0.53;;;13.60;99.90;13.00;99146;;;;586872;244;24036;-79
2023/10/12 03:06:31;;;;;;;0.97;0.77;;;13.60;99.90;13.00;99141;;;;576164;245;24102;-79
2023/10/12 03:09:36;;;;;;;0.60;0.60;;;13.60;99.90;13.00;99140;;;;566141;248;24074;-78
2023/10/12 03:11:25;;;;;;;0.70;0.70;;;13.60;99.90;13.00;99142;;;;576987;245;24112;-79
2023/10/12 03:14:35;;;;;;;6.23;0.70;;;13.50;99.90;12.90;99148;;;;578996;246;24060;-79
2023/10/12 03:16:29;;;;;;;2.63;0.67;;;13.50;99.90;12.90;99147;;;;565829;249;24198;-80
2023/10/12 03:18:44;;;;;;;0.60;0.60;;;13.50;99.90;12.90;99158;;;;580745;244;24091;-79
2023/10/12 03:21:12;;;;;;;1.10;0.70;;;13.50;99.90;12.90;99162;;;;580971;245;24081;-79
2023/10/12 03:23:44;;;;;;;0.50;0.50;;;13.50;99.90;12.90;99159;;;;604128;237;24037;-80
2023/10/12 03:26:18;;;;;;;0.53;0.43;;;13.50;99.90;12.90;99161;;;;594296;239;24103;-80
2023/10/12 03:28:45;;;;;;;0.80;0.60;;;13.50;99.90;12.90;99161;;;;590361;239;24087;-80
2023/10/12 03:31:57;;;;;;;0.40;0.40;;;13.50;99.90;13.00;99180;;;;595047;239;24038;-79
2023/10/12 03:33:56;;;;;;;0.60;0.60;;;13.50;99.90;13.00;99177;;;;572999;248;24097;-80
2023/10/12 03:36:23;;;;;;;0.53;0.53;;;13.50;99.90;13.00;99180;;;;572244;247;24063;-80
2023/10/12 03:41:46;;;;;;;0.30;0.30;;;13.60;99.90;13.10;99182;;;;570217;248;24084;-80
2023/10/12 03:44:48;;;;;;;1.70;0.50;;;13.60;99.90;13.10;99179;;;;578386;244;24070;-80
2023/10/12 03:46:46;;;;;;;0.50;0.50;;;13.70;99.90;13.10;99160;;;;576792;243;24137;-79
2023/10/12 03:49:23;;;;;;;0.50;0.50;;;13.70;99.90;13.20;99146;;;;580397;246;24133;-80
2023/10/12 03:51:41;;;;;;;1.37;0.70;;;13.80;99.90;13.20;99145;;;;602715;238;24047;-80
2023/10/12 03:54:18;;;;;;;1.17;0.60;;;13.70;99.90;13.20;99150;;;;594114;237;24021;-80
2023/10/12 03:56:40;;;;;;;0.60;0.50;;;13.80;99.90;13.20;99162;;;;593942;239;24054;-78
2023/10/12 03:59:08;;;;;;;0.43;0.43;;;13.80;99.90;13.20;99180;;;;596193;238;24068;-79
2023/10/12 04:01:40;;;;;;;1.90;0.70;;;13.80;99.90;13.20;99200;;;;579287;244;24084;-80
2023/10/12 04:09:20;;;;;;;0.47;0.47;;;13.60;99.90;13.10;99199;;;;580231;244;24214;-81
2023/10/12 04:12:35;;;;;;;0.40;0.40;;;13.70;99.90;13.00;99193;;;;603558;238;24003;-80
2023/10/12 04:17:18;;;;;;;0.53;0.40;;;13.50;99.90;12.80;99208;;;;604275;237;24010;-81
2023/10/12 04:19:44;;;;;;;0.30;0.30;;;13.40;99.90;12.70;99211;;;;578470;244;24110;-80
2023/10/12 04:22:17;;;;;;;1.60;0.50;;;13.20;99.90;12.60;99200;;;;570890;246;24125;-79
2023/10/12 04:24:49;;;;;;;0.40;0.20;;;13.20;99.90;12.50;99212;;;;575191;246;24086;-79
2023/10/12 04:30:18;;;;;;;1.23;0.40;;;13.00;99.90;12.30;99233;;;;580959;247;24110;-80
2023/10/12 04:32:52;;;;;;;2.20;0.43;;;12.90;99.90;12.30;99231;;;;574304;242;24063;-80
2023/10/12 04:35:14;;;;;;;0.40;0.40;;;12.90;99.90;12.30;99218;;;;578471;246;24111;-80
2023/10/12 04:37:32;;;;;;;0.30;0.30;;;12.90;99.90;12.30;99231;;;;573385;244;24069;-80
2023/10/12 04:40:09;;;;;;;0.57;0.30;;;12.90;99.90;12.20;99233;;;;578638;244;24063;-80
2023/10/12 04:42:34;;;;;;;1.67;0.33;;;12.80;99.90;12.10;99239;;;;579931;247;24104;-80
2023/10/12 04:47:35;;;;;;;0.43;0.40;;;12.70;99.90;12.00;99226;;;;599824;239;24009;-81
2023/10/12 04:50:04;;;;;;;2.33;0.70;;;12.70;99.90;11.90;99231;;;;594099;237;24011;-80
2023/10/12 04:52:37;;;;;;;2.50;0.30;;;12.60;99.90;11.80;99253;;;;577650;244;24177;-80
2023/10/12 04:55:20;;;;;;;5.53;0.83;;;12.50;99.90;11.70;99262;;;;570374;246;24120;-81
2023/10/12 04:57:41;;;;;;;4.25;1.02;;;12.40;99.90;11.70;99264;;;;570433;246;35060;-80
2023/10/12 05:00:12;;;;;;;2.43;0.80;;;12.40;99.90;11.60;99258;;;;578935;248;24064;-80
2023/10/12 05:07:54;;;;;;;3.73;0.93;;;12.20;99.90;11.50;99272;;;;572257;248;24086;-80
2023/10/12 05:10:31;;;;;;;4.40;0.60;;;12.20;99.90;11.40;99278;;;;604857;236;24019;-79
2023/10/12 05:13:03;;;;;;;2.43;0.63;;;12.10;99.90;11.40;99276;;;;595367;236;24051;-81
2023/10/12 05:15:28;;;;;;;0.80;0.67;;;12.10;99.90;11.40;99265;;;;576014;248;24071;-80
2023/10/12 05:17:54;;;;;;;3.10;1.50;;;12.10;99.90;11.30;99256;;;;579283;248;24078;-79
2023/10/12 05:20:24;;;;;;;1.87;0.70;;;12.00;99.90;11.30;99272;;;;579265;246;24047;-79
2023/10/12 05:22:50;;;;;;;10.90;1.10;;;12.00;99.90;11.30;99278;;;;604055;237;24015;-80
2023/10/12 05:25:18;;;;;;;2.20;0.63;;;12.00;99.90;11.20;99281;;;;563092;245;24103;-80
2023/10/12 05:28:08;;;;;;;2.17;1.10;;;11.90;99.90;11.10;99288;;;;576761;244;24048;-80
2023/10/12 05:30:16;;;;;;;5.33;1.33;;;11.90;99.90;11.10;99272;;;;579688;247;24089;-80
2023/10/12 05:32:49;;;;;;;1.57;0.80;;;11.80;99.90;11.10;99286;;;;581056;247;24119;-80
2023/10/12 05:35:43;;;;;;;2.17;0.93;;;11.80;99.90;11.00;99290;;;;603888;237;24095;-81
2023/10/12 05:37:49;;;;;;;2.23;0.80;;;11.70;99.90;11.00;99286;;;;596345;237;24136;-80
2023/10/12 05:40:21;;;;;;;1.27;1.17;;;11.70;99.90;11.00;99283;;;;594775;238;24057;-80
2023/10/12 05:42:50;;;;;;;0.97;0.90;;;11.70;99.90;10.90;99284;;;;603977;235;23996;-80
2023/10/12 05:45:22;;;;;;;8.33;2.13;;;11.80;99.90;10.90;99285;;;;594289;237;25099;-81
2023/10/12 05:47:52;;;;;;;6.17;1.03;;;11.60;99.90;10.90;99289;;;;594451;237;24087;-79
2023/10/12 05:50:23;;;;;;;4.95;1.35;;;11.60;99.90;10.90;99295;;;;584353;239;34826;-80
2023/10/12 05:52:48;;;;;;;5.27;1.27;;;11.60;99.90;10.90;99320;;;;577818;240;24093;-81
2023/10/12 05:55:21;;;;;;;5.30;1.57;;;11.70;99.90;10.90;99315;;;;565202;248;36694;-80
2023/10/12 05:57:46;;;;;;;7.90;1.50;;;11.70;99.90;11.00;99322;;;;575893;245;24071;-80
2023/10/12 06:00:35;;;;;;;2.27;0.70;;;11.70;99.90;11.00;99327;;;;575672;247;24088;-80
2023/10/12 06:02:44;;;;;;;10.50;1.70;;;11.70;99.90;11.00;99331;;;;570650;243;24103;-80
2023/10/12 06:05:12;;;;;;;2.30;0.90;;;11.80;99.90;11.10;99346;;;;570277;248;24061;-80
2023/10/12 06:07:38;;;;;;;6.33;1.40;;;11.80;99.90;11.10;99345;;;;575720;249;24074;-80
2023/10/12 06:10:09;;;;;;;10.30;1.70;;;11.80;99.90;11.20;99356;;;;580532;244;24153;-79
2023/10/12 06:12:35;;;;;;;8.83;1.37;;;11.90;99.90;11.20;99371;;;;571262;247;24109;-80
2023/10/12 06:15:09;;;;;;;1.70;1.07;;;11.90;99.90;11.20;99366;;;;580299;247;24123;-80
2023/10/12 06:17:31;;;;;;;7.97;1.70;;;11.90;99.90;11.20;99378;;;;566080;248;24173;-81
2023/10/12 06:20:29;;;;;;;4.83;1.30;;;11.90;99.90;11.30;99386;;;;580394;247;24103;-80
2023/10/12 06:22:41;;;;;;;7.10;1.47;;;11.90;99.90;11.30;99394;;;;604228;237;24122;-80
2023/10/12 06:25:17;;;;;;;6.87;1.30;;;12.00;99.90;11.40;99406;;;;595042;238;23993;-80
2023/10/12 06:27:40;;;;;;;8.17;1.13;;;12.10;99.90;11.50;99411;;;;578642;244;24118;-80
2023/10/12 06:30:17;;;;;;;6.20;1.63;;;12.20;99.90;11.50;99406;;;;572947;247;24072;-80
2023/10/12 06:32:39;;;;;;;13.37;1.80;;;12.80;99.90;11.50;99414;;;;571699;248;24090;-80
2023/10/12 06:37:59;;;;;;;7.57;2.07;;;12.30;99.90;11.60;99419;;;;567584;248;37077;-80
2023/10/12 06:45:52;;;;;;;7.50;1.50;;;12.50;99.90;11.90;99424;;;;561790;251;24223;-80
2023/10/12 06:51:03;;;;;;;6.80;2.23;;;12.70;99.90;12.20;99437;;;;568795;238;34743;-80
2023/10/12 06:53:34;;;;;;;9.70;1.70;;;12.90;99.90;12.40;99438;;;;599707;238;24057;-79
2023/10/12 06:56:06;;;;;;;11.73;2.00;;;13.10;99.90;12.60;99443;;;;594673;237;24015;-80
2023/10/12 06:58:36;;;;;;;10.40;2.47;;;13.30;99.90;12.80;99446;;;;589605;235;36427;-80
2023/10/12 07:01:18;;;;;;;10.40;2.27;;;13.70;99.90;13.10;99450;;;;566249;248;24164;-81
2023/10/12 07:03:30;;;;;;;15.13;1.83;;;13.90;99.90;13.20;99450;;;;602221;238;24035;-81
2023/10/12 07:05:59;;;;;;;10.87;2.07;;;14.00;99.90;13.30;99441;;;;593902;239;24028;-79
2023/10/12 07:08:27;;;;;;;4.60;1.57;;;14.00;99.90;13.30;99445;;;;586620;242;24120;-79
2023/10/12 07:10:59;;;;;;;9.37;2.60;;;14.00;99.90;13.40;99453;;;;571804;245;24125;-79
2023/10/12 07:13:25;;;;;;;10.97;2.03;;;14.00;99.90;13.60;99448;;;;580474;247;24143;-80
2023/10/12 07:15:51;;;;;;;4.93;1.70;;;14.20;99.90;13.80;99462;;;;569331;247;24072;-80
2023/10/12 07:18:18;;;;;;;8.23;1.40;;;14.50;99.90;14.00;99465;;;;603893;237;24008;-80
2023/10/12 07:20:46;;;;;;;3.23;1.40;;;14.90;99.90;14.30;99472;;;;594406;239;24125;-79
2023/10/12 07:25:48;;;;;;;11.10;2.60;;;15.40;99.90;15.30;99477;;;;575765;249;25131;-79
2023/10/12 07:28:34;;;;;;;6.68;2.15;;;15.90;99.90;15.60;99492;;;;568296;248;46007;-81
2023/10/12 07:42:00;;;;;;;4.23;1.53;;;16.20;99.90;16.00;99501;;;;576707;247;24104;-79
2023/10/12 07:44:18;;;;;;;11.17;1.70;;;16.60;99.90;16.60;99497;;;;574411;244;24029;-80
2023/10/12 07:46:46;;;;;;;8.63;1.83;;;17.10;99.90;17.20;99496;;;;581478;245;24149;-79
2023/10/12 07:51:59;;;;;;;5.27;1.43;;;18.50;99.90;18.90;99511;;;;600112;238;24004;-80
2023/10/12 07:54:46;;;;;;;8.30;1.97;;;19.30;99.90;20.40;99526;;;;575918;248;23124;-80
2023/10/12 07:56:52;;;;;;;6.57;2.57;;;20.70;99.90;21.90;99532;;;;579142;246;23132;-81
2023/10/12 07:59:17;;;;;;;4.53;1.90;;;22.20;99.90;23.40;99530;;;;575384;248;24131;-80
2023/10/12 08:01:50;;;;;;;5.83;1.53;;;25.00;99.90;24.50;99517;;;;578913;246;24059;-79
2023/10/12 08:04:29;;;;;;;8.45;2.12;;;25.00;99.90;25.90;99521;;;;573710;246;35192;-79
2023/10/12 08:06:56;;;;;;;3.80;1.83;;;26.20;95.40;27.20;99529;;;;580633;247;24100;-78
2023/10/12 08:11:55;;;;;;;6.72;1.87;;;29.00;87.00;27.90;99540;;;;599781;239;23033;-79
2023/10/12 08:19:39;;;;;;;6.07;2.00;;;27.10;76.60;23.80;99544;;;;586583;243;23108;-79
2023/10/12 08:22:26;;;;;;;3.80;1.87;;;25.60;83.00;22.40;99548;;;;569997;248;23065;-80
2023/10/12 08:24:57;;;;;;;3.43;1.80;;;24.10;82.70;20.80;99554;;;;580288;245;24140;-80
2023/10/12 08:27:21;;;;;;;7.57;1.80;;;22.50;88.20;19.80;99565;;;;562841;249;24090;-80
2023/10/12 08:30:12;;;;;;;10.20;1.70;;;21.30;91.90;19.10;99553;;;;578871;247;24061;-80
2023/10/12 08:37:35;;;;;;;7.47;1.53;;;18.60;96.10;17.00;99575;;;;580823;245;24059;-79
2023/10/12 08:44:59;;;;;;;5.33;1.53;;;17.20;99.90;16.50;99571;;;;568427;248;24154;-79
2023/10/12 08:47:26;;;;;;;6.53;1.70;;;17.20;99.90;16.30;99564;;;;579652;247;24106;-79
2023/10/12 08:50:01;;;;;;;3.20;1.30;;;17.00;99.90;16.20;99564;;;;579252;247;24134;-79
2023/10/12 08:52:27;;;;;;;2.30;1.17;;;17.00;99.90;16.40;99572;;;;575598;249;24125;-79
2023/10/12 08:54:52;;;;;;;3.93;1.07;;;17.00;99.90;17.50;99569;;;;572065;247;24064;-80
2023/10/12 08:57:24;;;;;;;4.27;1.30;;;17.90;99.90;19.00;99578;;;;567200;249;23101;-80
2023/10/12 08:59:57;;;;;;;5.10;1.70;;;19.30;99.90;21.10;99585;;;;579159;248;23130;-80
2023/10/12 09:02:22;;;;;;;4.33;1.50;;;21.40;99.30;22.50;99594;;;;571725;247;24048;-80
2023/10/12 09:04:49;;;;;;;5.50;1.73;;;23.10;94.80;22.60;99587;;;;581077;247;24093;-81
2023/10/12 09:07:19;;;;;;;8.80;1.40;;;23.50;91.60;22.40;99585;;;;581063;247;24160;-79
2023/10/12 09:09:55;;;;;;;4.87;1.67;;;23.40;91.20;22.30;99592;;;;589456;238;24003;-79
2023/10/12 09:12:21;;;;;;;1.93;1.23;;;23.30;91.50;21.80;99591;;;;594948;238;23072;-79
2023/10/12 09:14:46;;;;;;;9.40;2.00;;;22.90;90.70;21.30;99589;;;;578401;243;24076;-79
2023/10/12 09:17:30;;;;;;;4.27;1.30;;;22.40;92.50;21.30;99593;;;;578959;244;24108;-80
2023/10/12 09:20:28;;;;;;;3.30;1.40;;;22.30;91.30;21.30;99599;;;;573758;244;24215;-79
2023/10/12 09:22:39;;;;;;;6.83;1.60;;;22.30;91.30;21.40;99615;;;;571246;248;24126;-79
2023/10/12 09:25:10;;;;;;;3.33;1.37;;;22.30;91.10;21.20;99605;;;;580185;247;24116;-79
2023/10/12 09:27:48;;;;;;;4.87;1.70;;;22.10;91.70;21.20;99607;;;;581192;244;24113;-79
2023/10/12 09:30:15;;;;;;;4.13;1.37;;;22.10;91.60;21.50;99605;;;;578235;248;24086;-80
2023/10/12 09:32:33;;;;;;;9.27;1.50;;;22.30;91.50;21.70;99594;;;;565354;250;24072;-79
2023/10/12 09:35:14;;;;;;;5.45;1.55;;;22.50;91.10;21.80;99585;;;;589033;239;34832;-79
2023/10/12 09:37:53;;;;;;;3.03;1.40;;;22.70;88.00;21.50;99603;;;;578072;243;24081;-79
2023/10/12 09:43:12;;;;;;;5.10;1.77;;;22.50;90.20;21.50;99602;;;;569862;248;24056;-80
2023/10/12 09:45:41;;;;;;;5.13;1.20;;;22.50;89.40;21.00;99615;;;;574169;244;23259;-79
2023/10/12 09:48:06;;;;;;;7.10;1.43;;;22.00;86.40;20.30;99607;;;;578261;245;24122;-79
2023/10/12 09:50:32;;;;;;;6.30;1.20;;;21.40;88.00;20.00;99621;;;;580239;247;24066;-79
2023/10/12 09:53:12;;;;;;;4.73;1.57;;;20.70;90.70;19.80;99630;;;;603337;237;24016;-79
2023/10/12 09:55:32;;;;;;;4.03;1.17;;;20.60;90.60;19.40;99628;;;;589213;238;23072;-79
2023/10/12 09:58:05;;;;;;;3.63;1.30;;;20.30;90.80;18.90;99620;;;;587607;244;23052;-79
2023/10/12 10:00:53;;;;;;;4.67;1.23;;;19.80;90.80;18.50;99625;;;;587704;243;24043;-80
2023/10/12 10:03:02;;;;;;;5.33;1.37;;;19.40;91.60;18.00;99619;;;;580109;246;24107;-79
2023/10/12 10:05:52;;;;;;;2.60;0.87;;;18.90;92.20;17.60;99620;;;;567876;249;24057;-79
2023/10/12 10:08:26;;;;;;;2.67;1.00;;;17.90;93.70;17.10;99630;;;;570898;248;24068;-80
2023/10/12 10:10:57;;;;;;;5.70;1.33;;;17.90;93.60;16.70;99629;;;;578634;248;24115;-79
2023/10/12 10:13:47;;;;;;;3.60;1.10;;;17.50;94.20;16.30;99635;;;;587416;238;24019;-79
2023/10/12 10:16:18;;;;;;;4.43;1.30;;;17.10;95.10;15.80;99630;;;;563040;246;24110;-80
2023/10/12 10:18:46;;;;;;;4.50;1.47;;;16.60;96.10;15.70;99634;;;;587153;244;24077;-79
2023/10/12 10:21:14;;;;;;;4.50;1.13;;;16.40;97.20;15.60;99625;;;;587022;244;23073;-79
2023/10/12 10:23:52;;;;;;;9.00;1.33;;;16.30;97.70;15.50;99630;;;;570481;248;24070;-80
2023/10/12 10:26:34;;;;;;;3.77;1.10;;;16.10;98.00;15.40;99637;;;;570206;248;24086;-79
2023/10/12 10:28:55;;;;;;;8.80;1.33;;;16.10;98.60;15.50;99625;;;;578246;247;24078;-78
2023/10/12 10:31:14;;;;;;;3.00;0.87;;;16.10;98.80;15.50;99629;;;;603151;237;23994;-79
2023/10/12 10:33:43;;;;;;;2.30;1.00;;;16.20;98.70;15.50;99642;;;;574380;244;24075;-79
2023/10/12 10:36:12;;;;;;;3.73;1.20;;;16.10;98.70;15.50;99636;;;;570249;245;24052;-78
2023/10/12 10:38:53;;;;;;;5.93;1.33;;;16.10;98.80;15.50;99644;;;;575666;247;24056;-79
2023/10/12 10:41:17;;;;;;;7.57;1.00;;;16.10;99.00;15.50;99642;;;;569128;248;24065;-81
2023/10/12 10:43:38;;;;;;;7.50;1.20;;;16.30;99.30;15.70;99639;;;;566367;249;24104;-79
2023/10/12 10:46:05;;;;;;;3.97;1.00;;;16.20;99.20;16.00;99641;;;;570280;248;24170;-78
2023/10/12 10:48:33;;;;;;;9.03;1.20;;;16.50;99.40;16.40;99627;;;;569962;248;24074;-78
2023/10/12 10:51:02;;;;;;;5.37;1.13;;;16.90;99.10;16.70;99624;;;;579076;247;24055;-78
2023/10/12 10:53:31;;;;;;;6.83;1.17;;;17.30;98.40;16.80;99630;;;;575657;249;24164;-79
2023/10/12 10:55:55;;;;;;;9.00;1.33;;;17.50;97.90;16.90;99643;;;;578922;248;24055;-79
2023/10/12 10:58:24;;;;;;;4.07;1.47;;;17.50;97.50;16.80;99638;;;;579028;248;24095;-79
2023/10/12 11:00:56;;;;;;;7.10;1.30;;;17.50;97.40;16.90;99644;;;;579185;246;24079;-79
2023/10/12 11:03:26;;;;;;;4.50;1.33;;;17.50;97.60;17.00;99654;;;;567397;246;24061;-78
2023/10/12 11:05:53;;;;;;;3.60;1.20;;;17.50;97.50;16.80;99662;;;;578824;247;24075;-79
2023/10/12 11:08:26;;;;;;;7.03;1.10;;;17.50;97.50;16.70;99662;;;;576977;247;24049;-80
2023/10/12 11:13:44;;;;;;;2.83;1.43;;;17.20;97.60;16.50;99662;;;;577155;247;24060;-79
2023/10/12 11:16:20;;;;;;;4.00;1.65;;;17.10;98.20;16.60;99664;;;;598997;237;34746;-80
2023/10/12 11:18:33;;;;;;;6.10;1.53;;;17.20;98.50;16.60;99662;;;;586886;244;24124;-79
2023/10/12 11:21:04;;;;;;;2.87;1.50;;;17.20;98.60;16.70;99664;;;;579433;247;24051;-80
2023/10/12 11:23:32;;;;;;;5.07;1.53;;;17.30;98.30;16.80;99678;;;;569397;247;24068;-78
2023/10/12 11:26:04;;;;;;;9.33;1.83;;;17.40;98.30;16.80;99660;;;;578171;244;24065;-80
2023/10/12 11:28:33;;;;;;;3.07;1.80;;;17.40;98.00;16.80;99660;;;;570524;244;24118;-80
2023/10/12 11:31:13;;;;;;;3.40;1.10;;;17.40;97.90;16.60;99664;;;;576126;247;24096;-78
2023/10/12 11:33:32;;;;;;;8.17;1.30;;;17.30;97.80;16.40;99664;;;;580662;247;24159;-79
2023/10/12 11:36:09;;;;;;;4.73;1.23;;;17.10;98.10;16.20;99679;;;;567544;249;24117;-79
2023/10/12 11:38:34;;;;;;;3.70;1.70;;;16.90;98.40;16.00;99672;;;;574592;245;35082;-80
2023/10/12 11:40:59;;;;;;;3.73;1.10;;;16.70;98.40;15.80;99687;;;;567676;249;24086;-79
2023/10/12 11:43:56;;;;;;;2.97;0.73;;;16.30;99.00;15.60;99680;;;;569010;248;24118;-79
2023/10/12 11:46:26;;;;;;;3.53;1.40;;;16.30;99.00;15.50;99691;;;;581109;246;24059;-79
2023/10/12 11:49:09;;;;;;;3.80;1.13;;;16.10;99.60;15.60;99685;;;;599999;239;24017;-80
2023/10/12 11:51:40;;;;;;;2.33;0.87;;;16.20;99.80;15.70;99691;;;;603358;238;24085;-78
2023/10/12 11:54:05;;;;;;;5.40;1.13;;;16.40;99.90;15.80;99686;;;;589609;239;24019;-80
2023/10/12 11:56:30;;;;;;;5.60;1.47;;;16.30;99.90;15.80;99690;;;;577973;244;24084;-80
2023/10/12 11:58:58;;;;;;;8.37;1.57;;;16.40;99.90;15.90;99679;;;;570055;248;24058;-79
2023/10/12 12:01:30;;;;;;;5.63;1.27;;;16.50;99.90;16.10;99683;;;;580931;244;24059;-79
2023/10/12 12:03:57;;;;;;;2.83;0.73;;;16.70;99.90;16.40;99691;;;;594278;239;24016;-79
2023/10/12 12:06:21;;;;;;;3.50;1.50;;;16.90;99.90;16.60;99686;;;;587517;239;24074;-80
2023/10/12 12:08:50;;;;;;;5.53;1.07;;;17.30;99.60;16.80;99691;;;;594384;239;24028;-80
2023/10/12 12:11:21;;;;;;;4.80;1.47;;;17.30;99.60;16.90;99696;;;;594275;237;24024;-80
2023/10/12 12:13:51;;;;;;;5.40;1.17;;;17.50;99.90;16.90;99700;;;;578087;244;24057;-79
2023/10/12 12:16:20;;;;;;;4.60;0.97;;;17.50;99.60;16.70;99701;;;;575642;247;24102;-80
2023/10/12 12:18:45;;;;;;;1.23;0.90;;;17.40;99.40;16.50;99703;;;;581485;245;24127;-78
2023/10/12 12:21:16;;;;;;;3.97;1.33;;;17.20;99.70;16.30;99699;;;;581890;246;24055;-79
2023/10/12 12:23:40;;;;;;;5.50;1.33;;;16.90;99.90;16.20;99695;;;;604891;236;24004;-79
2023/10/12 12:26:14;;;;;;;6.10;1.73;;;16.70;99.90;16.10;99696;;;;595332;238;24050;-80
2023/10/12 12:28:49;;;;;;;4.63;1.50;;;16.70;99.90;16.30;99700;;;;578944;240;23049;-80
2023/10/12 12:31:15;;;;;;;4.47;1.63;;;17.10;99.90;16.50;99707;;;;572756;245;24108;-80
2023/10/12 12:33:46;;;;;;;1.73;0.90;;;17.00;99.90;16.80;99698;;;;604157;237;24012;-78
2023/10/12 12:36:21;;;;;;;6.43;1.73;;;17.30;99.90;16.80;99707;;;;594991;238;24004;-79
2023/10/12 12:41:18;;;;;;;3.93;1.10;;;17.10;98.30;16.50;99714;;;;575761;248;24054;-80
2023/10/12 12:43:38;;;;;;;7.53;1.43;;;17.10;98.30;16.20;99713;;;;578532;248;24114;-80
2023/10/12 12:46:06;;;;;;;9.00;1.20;;;16.90;98.80;16.00;99706;;;;578989;246;24142;-77
2023/10/12 12:48:34;;;;;;;3.33;1.33;;;16.60;98.40;15.70;99719;;;;603904;237;23987;-79
2023/10/12 12:51:03;;;;;;;8.47;1.93;;;16.10;98.80;15.40;99728;;;;562814;246;24077;-80
2023/10/12 12:53:33;;;;;;;4.37;1.17;;;15.90;99.60;15.30;99728;;;;576477;244;24098;-80